CEB594 RPMD-RPVM
Flight info
| Callsign | CEB594 |
|---|---|
| Flight time | 0h 51m |
| Altitude | 28000 |
| Route | RPMD/05 N0411F280 JOFE3R JOFER W8 BOHOL BOHO3P RPVM/04R |
| Aircraft | A339/H-SIL/2000 |
Departure
| Time | 2026-05-06 15:26 |
|---|---|
| Airport | Francisco Bangoy International Airport (RPMD) |
Arrival
| Time | 2026-05-06 16:18 |
|---|---|
| Airport | Mactan Cebu International Airport (RPVM) |
| Time | Latitude | Longitude | Altitude | Speed | Heading |
|---|---|---|---|---|---|
| 2026-05-06 15:11 | 7.12903 | 125.64513 | 124 ft | 0 kts | 319° |
| 2026-05-06 15:17 | 7.12901 | 125.64515 | 124 ft | 2 kts | 319° |
| 2026-05-06 15:18 | 7.12889 | 125.64525 | 124 ft | 2 kts | 318° |
| 2026-05-06 15:18 | 7.12878 | 125.64535 | 124 ft | 2 kts | 319° |
| 2026-05-06 15:18 | 7.12867 | 125.64545 | 124 ft | 2 kts | 319° |
| 2026-05-06 15:18 | 7.12855 | 125.64555 | 124 ft | 2 kts | 319° |
| 2026-05-06 15:19 | 7.12847 | 125.64562 | 125 ft | 0 kts | 319° |
| 2026-05-06 15:19 | 7.12841 | 125.64568 | 125 ft | 1 kts | 292° |
| 2026-05-06 15:19 | 7.12839 | 125.64574 | 125 ft | 1 kts | 266° |
| 2026-05-06 15:19 | 7.12840 | 125.64580 | 125 ft | 0 kts | 240° |
| 2026-05-06 15:20 | 7.12843 | 125.64584 | 124 ft | 0 kts | 230° |
| 2026-05-06 15:21 | 7.12835 | 125.64573 | 124 ft | 3 kts | 232° |
| 2026-05-06 15:21 | 7.12815 | 125.64545 | 125 ft | 6 kts | 233° |
| 2026-05-06 15:22 | 7.12730 | 125.64452 | 125 ft | 6 kts | 216° |
| 2026-05-06 15:22 | 7.12626 | 125.64521 | 125 ft | 3 kts | 137° |
| 2026-05-06 15:22 | 7.12598 | 125.64540 | 125 ft | 6 kts | 145° |
| 2026-05-06 15:22 | 7.12541 | 125.64557 | 125 ft | 5 kts | 200° |
| 2026-05-06 15:23 | 7.12509 | 125.64529 | 126 ft | 6 kts | 227° |
| 2026-05-06 15:23 | 7.12475 | 125.64490 | 126 ft | 8 kts | 229° |
| 2026-05-06 15:23 | 7.12431 | 125.64439 | 126 ft | 10 kts | 229° |
| 2026-05-06 15:23 | 7.12380 | 125.64381 | 125 ft | 11 kts | 229° |
| 2026-05-06 15:24 | 7.12108 | 125.64065 | 125 ft | 12 kts | 229° |
| 2026-05-06 15:24 | 7.11757 | 125.63633 | 125 ft | 13 kts | 256° |
| 2026-05-06 15:24 | 7.11751 | 125.63549 | 125 ft | 8 kts | 255° |
| 2026-05-06 15:24 | 7.11721 | 125.63535 | 125 ft | 5 kts | 150° |
| 2026-05-06 15:25 | 7.11689 | 125.63563 | 126 ft | 6 kts | 114° |
| 2026-05-06 15:25 | 7.11703 | 125.63595 | 126 ft | 6 kts | 47° |
| 2026-05-06 15:25 | 7.11768 | 125.63670 | 126 ft | 38 kts | 49° |
| 2026-05-06 15:25 | 7.12106 | 125.64059 | 126 ft | 105 kts | 49° |
| 2026-05-06 15:26 | 7.12707 | 125.64766 | 132 ft | 158 kts | 48° |
| 2026-05-06 15:26 | 7.13471 | 125.65646 | 543 ft | 168 kts | 47° |
| 2026-05-06 15:26 | 7.14240 | 125.66466 | 1258 ft | 160 kts | 43° |
| 2026-05-06 15:26 | 7.15165 | 125.66981 | 1932 ft | 152 kts | 6° |
| 2026-05-06 15:27 | 7.16227 | 125.66888 | 2376 ft | 159 kts | 347° |
| 2026-05-06 15:27 | 7.17347 | 125.66598 | 2742 ft | 174 kts | 346° |
| 2026-05-06 15:27 | 7.18593 | 125.66303 | 3102 ft | 191 kts | 349° |
| 2026-05-06 15:27 | 7.19947 | 125.66039 | 3467 ft | 209 kts | 351° |
| 2026-05-06 15:28 | 7.21466 | 125.65784 | 3877 ft | 227 kts | 352° |
| 2026-05-06 15:28 | 7.23088 | 125.65541 | 4306 ft | 245 kts | 353° |
| 2026-05-06 15:28 | 7.24842 | 125.65292 | 4737 ft | 263 kts | 353° |
| 2026-05-06 15:28 | 7.26700 | 125.65035 | 5359 ft | 272 kts | 353° |
| 2026-05-06 15:29 | 7.28582 | 125.64777 | 6149 ft | 275 kts | 353° |
| 2026-05-06 15:29 | 7.30479 | 125.64518 | 6929 ft | 276 kts | 353° |
| 2026-05-06 15:29 | 7.32385 | 125.64259 | 7663 ft | 280 kts | 353° |
| 2026-05-06 15:29 | 7.34316 | 125.63996 | 8377 ft | 283 kts | 353° |
| 2026-05-06 15:30 | 7.36290 | 125.63728 | 9100 ft | 287 kts | 354° |
| 2026-05-06 15:30 | 7.38291 | 125.63456 | 9827 ft | 290 kts | 354° |
| 2026-05-06 15:30 | 7.40298 | 125.63184 | 10471 ft | 295 kts | 354° |
| 2026-05-06 15:30 | 7.42409 | 125.62901 | 10823 ft | 313 kts | 354° |
| 2026-05-06 15:31 | 7.44614 | 125.62570 | 11123 ft | 331 kts | 348° |
| 2026-05-06 15:31 | 7.46861 | 125.61781 | 11488 ft | 348 kts | 335° |
| 2026-05-06 15:31 | 7.48923 | 125.60460 | 12103 ft | 356 kts | 324° |
| 2026-05-06 15:32 | 7.52834 | 125.57307 | 13472 ft | 363 kts | 322° |
| 2026-05-06 15:32 | 7.54812 | 125.55693 | 14118 ft | 367 kts | 323° |
| 2026-05-06 15:32 | 7.56806 | 125.54077 | 14748 ft | 372 kts | 323° |
| 2026-05-06 15:32 | 7.58829 | 125.52444 | 15444 ft | 373 kts | 323° |
| 2026-05-06 15:33 | 7.60875 | 125.50798 | 16098 ft | 377 kts | 323° |
| 2026-05-06 15:33 | 7.62919 | 125.49155 | 16660 ft | 383 kts | 323° |
| 2026-05-06 15:33 | 7.65026 | 125.47463 | 17236 ft | 388 kts | 323° |
| 2026-05-06 15:33 | 7.67155 | 125.45757 | 17809 ft | 392 kts | 323° |
| 2026-05-06 15:34 | 7.69314 | 125.44028 | 18400 ft | 396 kts | 323° |
| 2026-05-06 15:34 | 7.71479 | 125.42293 | 18978 ft | 400 kts | 323° |
| 2026-05-06 15:34 | 7.73673 | 125.40530 | 19536 ft | 404 kts | 323° |
| 2026-05-06 15:34 | 7.75153 | 125.39341 | 19908 ft | 407 kts | 323° |
| 2026-05-06 15:35 | 7.78088 | 125.36980 | 20742 ft | 407 kts | 323° |
| 2026-05-06 15:35 | 7.84884 | 125.31511 | 22761 ft | 403 kts | 323° |
| 2026-05-06 15:36 | 7.87080 | 125.29742 | 23404 ft | 402 kts | 322° |
| 2026-05-06 15:36 | 7.89268 | 125.27979 | 24007 ft | 402 kts | 323° |
| 2026-05-06 15:36 | 7.91457 | 125.26216 | 24637 ft | 401 kts | 323° |
| 2026-05-06 15:36 | 7.93625 | 125.24472 | 25293 ft | 398 kts | 322° |
| 2026-05-06 15:37 | 7.95829 | 125.22788 | 25953 ft | 395 kts | 326° |
| 2026-05-06 15:37 | 7.98109 | 125.21292 | 26514 ft | 394 kts | 330° |
| 2026-05-06 15:37 | 8.00544 | 125.19936 | 27014 ft | 395 kts | 334° |
| 2026-05-06 15:37 | 8.02995 | 125.18659 | 27489 ft | 397 kts | 334° |
| 2026-05-06 15:38 | 8.05459 | 125.17385 | 27912 ft | 398 kts | 334° |
| 2026-05-06 15:38 | 8.07941 | 125.16100 | 28053 ft | 400 kts | 334° |
| 2026-05-06 15:38 | 8.12915 | 125.13515 | 28051 ft | 399 kts | 334° |
| 2026-05-06 15:39 | 8.17900 | 125.10918 | 28049 ft | 399 kts | 334° |
| 2026-05-06 15:39 | 8.22836 | 125.08345 | 28046 ft | 399 kts | 333° |
| 2026-05-06 15:40 | 8.26946 | 125.06200 | 28052 ft | 398 kts | 333° |
| 2026-05-06 15:40 | 8.32712 | 125.03191 | 28049 ft | 398 kts | 334° |
| 2026-05-06 15:41 | 8.37645 | 125.00622 | 28051 ft | 398 kts | 334° |
| 2026-05-06 15:41 | 8.42610 | 124.98033 | 28044 ft | 398 kts | 334° |
| 2026-05-06 15:42 | 8.47532 | 124.95464 | 28025 ft | 398 kts | 333° |
| 2026-05-06 15:42 | 8.52444 | 124.92896 | 28007 ft | 398 kts | 333° |
| 2026-05-06 15:43 | 8.57382 | 124.90314 | 28007 ft | 398 kts | 333° |
| 2026-05-06 15:43 | 8.62319 | 124.87732 | 28009 ft | 398 kts | 333° |
| 2026-05-06 15:44 | 8.67250 | 124.85150 | 28001 ft | 398 kts | 333° |
| 2026-05-06 15:44 | 8.69732 | 124.83851 | 27995 ft | 398 kts | 333° |
| 2026-05-06 15:44 | 8.72200 | 124.82557 | 27990 ft | 398 kts | 333° |
| 2026-05-06 15:45 | 8.74635 | 124.81281 | 27982 ft | 397 kts | 333° |
| 2026-05-06 15:45 | 8.77080 | 124.80000 | 27801 ft | 393 kts | 333° |
| 2026-05-06 15:45 | 8.79537 | 124.78713 | 27346 ft | 393 kts | 333° |
| 2026-05-06 15:45 | 8.81979 | 124.77438 | 26895 ft | 393 kts | 333° |
| 2026-05-06 15:46 | 8.84414 | 124.76166 | 26497 ft | 391 kts | 333° |
| 2026-05-06 15:46 | 8.86837 | 124.74899 | 26037 ft | 391 kts | 333° |
| 2026-05-06 15:46 | 8.89249 | 124.73635 | 25514 ft | 393 kts | 334° |
| 2026-05-06 15:46 | 8.91672 | 124.72366 | 24967 ft | 395 kts | 334° |
| 2026-05-06 15:47 | 8.94143 | 124.71070 | 24404 ft | 397 kts | 334° |
| 2026-05-06 15:47 | 8.96591 | 124.69787 | 23847 ft | 400 kts | 334° |
| 2026-05-06 15:47 | 8.99066 | 124.68490 | 23292 ft | 402 kts | 334° |
| 2026-05-06 15:47 | 9.01567 | 124.67180 | 22729 ft | 404 kts | 334° |
| 2026-05-06 15:48 | 9.04088 | 124.65859 | 22158 ft | 407 kts | 334° |
| 2026-05-06 15:48 | 9.06600 | 124.64546 | 21623 ft | 409 kts | 334° |
| 2026-05-06 15:48 | 9.09150 | 124.63212 | 21095 ft | 410 kts | 334° |
| 2026-05-06 15:48 | 9.11674 | 124.61890 | 20582 ft | 410 kts | 334° |
| 2026-05-06 15:49 | 9.14222 | 124.60555 | 20164 ft | 407 kts | 334° |
| 2026-05-06 15:49 | 9.16711 | 124.59248 | 19790 ft | 404 kts | 334° |
| 2026-05-06 15:49 | 9.19199 | 124.57941 | 19387 ft | 401 kts | 334° |
| 2026-05-06 15:49 | 9.21605 | 124.56679 | 18986 ft | 398 kts | 334° |
| 2026-05-06 15:50 | 9.24092 | 124.55373 | 18581 ft | 396 kts | 334° |
| 2026-05-06 15:50 | 9.26511 | 124.54102 | 18176 ft | 393 kts | 334° |
| 2026-05-06 15:50 | 9.28937 | 124.52829 | 17777 ft | 390 kts | 334° |
| 2026-05-06 15:50 | 9.31370 | 124.51549 | 17369 ft | 388 kts | 334° |
| 2026-05-06 15:51 | 9.33745 | 124.50301 | 16974 ft | 385 kts | 334° |
| 2026-05-06 15:51 | 9.36132 | 124.49046 | 16566 ft | 383 kts | 334° |
| 2026-05-06 15:51 | 9.38487 | 124.47807 | 16159 ft | 381 kts | 334° |
| 2026-05-06 15:51 | 9.40858 | 124.46561 | 15763 ft | 378 kts | 334° |
| 2026-05-06 15:52 | 9.43182 | 124.45338 | 15364 ft | 376 kts | 334° |
| 2026-05-06 15:52 | 9.45511 | 124.44112 | 14963 ft | 374 kts | 334° |
| 2026-05-06 15:52 | 9.47807 | 124.42902 | 14564 ft | 372 kts | 334° |
| 2026-05-06 15:52 | 9.50103 | 124.41694 | 14166 ft | 370 kts | 334° |
| 2026-05-06 15:53 | 9.52399 | 124.40485 | 13794 ft | 367 kts | 334° |
| 2026-05-06 15:53 | 9.54644 | 124.39303 | 13637 ft | 357 kts | 334° |
| 2026-05-06 15:53 | 9.56750 | 124.38068 | 13478 ft | 349 kts | 327° |
| 2026-05-06 15:53 | 9.58673 | 124.36574 | 13329 ft | 342 kts | 320° |
| 2026-05-06 15:54 | 9.60432 | 124.34942 | 13184 ft | 334 kts | 317° |
| 2026-05-06 15:54 | 9.62095 | 124.33343 | 13051 ft | 326 kts | 317° |
| 2026-05-06 15:54 | 9.63737 | 124.31755 | 12913 ft | 319 kts | 317° |
| 2026-05-06 15:54 | 9.65332 | 124.30219 | 12690 ft | 315 kts | 317° |
| 2026-05-06 15:55 | 9.66913 | 124.28702 | 12407 ft | 314 kts | 318° |
| 2026-05-06 15:55 | 9.68491 | 124.27193 | 12127 ft | 313 kts | 318° |
| 2026-05-06 15:55 | 9.70084 | 124.25671 | 11858 ft | 311 kts | 318° |
| 2026-05-06 15:55 | 9.71661 | 124.24165 | 11586 ft | 310 kts | 318° |
| 2026-05-06 15:56 | 9.73218 | 124.22677 | 11310 ft | 309 kts | 318° |
| 2026-05-06 15:56 | 9.74792 | 124.21173 | 11025 ft | 307 kts | 318° |
| 2026-05-06 15:56 | 9.76348 | 124.19688 | 10747 ft | 306 kts | 318° |
| 2026-05-06 15:56 | 9.77897 | 124.18209 | 10469 ft | 304 kts | 318° |
| 2026-05-06 15:57 | 9.79421 | 124.16753 | 10189 ft | 303 kts | 318° |
| 2026-05-06 15:57 | 9.80980 | 124.15265 | 9907 ft | 302 kts | 318° |
| 2026-05-06 15:57 | 9.82504 | 124.13813 | 9570 ft | 303 kts | 318° |
| 2026-05-06 15:57 | 9.84054 | 124.12335 | 9183 ft | 306 kts | 319° |
| 2026-05-06 15:58 | 9.85593 | 124.10869 | 8798 ft | 308 kts | 319° |
| 2026-05-06 15:58 | 9.87166 | 124.09367 | 8354 ft | 312 kts | 319° |
| 2026-05-06 15:58 | 9.88756 | 124.07849 | 7923 ft | 315 kts | 319° |
| 2026-05-06 15:58 | 9.90371 | 124.06307 | 7489 ft | 318 kts | 319° |
| 2026-05-06 15:59 | 9.91977 | 124.04772 | 7059 ft | 320 kts | 318° |
| 2026-05-06 15:59 | 9.93607 | 124.03213 | 6625 ft | 322 kts | 319° |
| 2026-05-06 15:59 | 9.95266 | 124.01627 | 6178 ft | 324 kts | 319° |
| 2026-05-06 15:59 | 9.96901 | 124.00063 | 5881 ft | 320 kts | 319° |
| 2026-05-06 16:00 | 9.98501 | 123.98531 | 5735 ft | 312 kts | 319° |
| 2026-05-06 16:00 | 10.00042 | 123.97054 | 5588 ft | 304 kts | 319° |
| 2026-05-06 16:00 | 10.01559 | 123.95601 | 5456 ft | 297 kts | 319° |
| 2026-05-06 16:00 | 10.03056 | 123.94167 | 5311 ft | 290 kts | 319° |
| 2026-05-06 16:01 | 10.04513 | 123.92773 | 5172 ft | 283 kts | 319° |
| 2026-05-06 16:01 | 10.05956 | 123.91393 | 4810 ft | 287 kts | 319° |
| 2026-05-06 16:01 | 10.07425 | 123.89990 | 4451 ft | 290 kts | 318° |
| 2026-05-06 16:01 | 10.08855 | 123.88566 | 4328 ft | 283 kts | 316° |
| 2026-05-06 16:02 | 10.10242 | 123.87147 | 4214 ft | 277 kts | 316° |
| 2026-05-06 16:02 | 10.11590 | 123.85764 | 4106 ft | 271 kts | 316° |
| 2026-05-06 16:02 | 10.12907 | 123.84418 | 4002 ft | 265 kts | 316° |
| 2026-05-06 16:02 | 10.14280 | 123.83198 | 3870 ft | 257 kts | 334° |
| 2026-05-06 16:03 | 10.15970 | 123.82849 | 3744 ft | 245 kts | 11° |
| 2026-05-06 16:03 | 10.17441 | 123.83579 | 3613 ft | 234 kts | 47° |
| 2026-05-06 16:03 | 10.18421 | 123.84861 | 3499 ft | 226 kts | 55° |
| 2026-05-06 16:03 | 10.19353 | 123.86119 | 3383 ft | 220 kts | 52° |
| 2026-05-06 16:04 | 10.20323 | 123.87286 | 3238 ft | 211 kts | 49° |
| 2026-05-06 16:04 | 10.21298 | 123.88360 | 3044 ft | 199 kts | 47° |
| 2026-05-06 16:04 | 10.22238 | 123.89346 | 2857 ft | 188 kts | 46° |
| 2026-05-06 16:04 | 10.23133 | 123.90264 | 2683 ft | 177 kts | 46° |
| 2026-05-06 16:05 | 10.23984 | 123.91129 | 2490 ft | 166 kts | 46° |
| 2026-05-06 16:05 | 10.24794 | 123.91933 | 2157 ft | 166 kts | 45° |
| 2026-05-06 16:05 | 10.25625 | 123.92786 | 1589 ft | 179 kts | 45° |
| 2026-05-06 16:05 | 10.26519 | 123.93697 | 1151 ft | 179 kts | 45° |
| 2026-05-06 16:06 | 10.27362 | 123.94537 | 1571 ft | 168 kts | 44° |
| 2026-05-06 16:06 | 10.28205 | 123.95364 | 2323 ft | 179 kts | 44° |
| 2026-05-06 16:06 | 10.29154 | 123.96314 | 2782 ft | 201 kts | 45° |
| 2026-05-06 16:06 | 10.30154 | 123.97374 | 2970 ft | 212 kts | 54° |
| 2026-05-06 16:07 | 10.30653 | 123.98786 | 2971 ft | 215 kts | 86° |
| 2026-05-06 16:07 | 10.30378 | 124.00266 | 2976 ft | 220 kts | 114° |
| 2026-05-06 16:07 | 10.29406 | 124.01477 | 2975 ft | 225 kts | 142° |
| 2026-05-06 16:07 | 10.27931 | 124.02067 | 2974 ft | 230 kts | 171° |
| 2026-05-06 16:08 | 10.26334 | 124.02173 | 2975 ft | 231 kts | 175° |
| 2026-05-06 16:08 | 10.24711 | 124.02245 | 2966 ft | 231 kts | 175° |
| 2026-05-06 16:08 | 10.23095 | 124.02325 | 2963 ft | 231 kts | 174° |
| 2026-05-06 16:08 | 10.21495 | 124.02417 | 2968 ft | 231 kts | 174° |
| 2026-05-06 16:09 | 10.20958 | 124.02449 | 2970 ft | 230 kts | 174° |
| 2026-05-06 16:09 | 10.19877 | 124.02514 | 2969 ft | 231 kts | 176° |
| 2026-05-06 16:09 | 10.17440 | 124.01533 | 2961 ft | 236 kts | 226° |
| 2026-05-06 16:09 | 10.15979 | 123.99873 | 2969 ft | 236 kts | 229° |
| 2026-05-06 16:10 | 10.14880 | 123.98610 | 2963 ft | 237 kts | 229° |
| 2026-05-06 16:10 | 10.09524 | 123.92463 | 2968 ft | 236 kts | 229° |
| 2026-05-06 16:10 | 10.08690 | 123.91063 | 2952 ft | 234 kts | 261° |
| 2026-05-06 16:10 | 10.08860 | 123.89471 | 2962 ft | 227 kts | 302° |
| 2026-05-06 16:11 | 10.09821 | 123.88277 | 2980 ft | 212 kts | 318° |
| 2026-05-06 16:11 | 10.12731 | 123.85332 | 2955 ft | 202 kts | 315° |
| 2026-05-06 16:11 | 10.13612 | 123.84258 | 2943 ft | 191 kts | 316° |
| 2026-05-06 16:11 | 10.14650 | 123.83531 | 2793 ft | 175 kts | 347° |
| 2026-05-06 16:12 | 10.15435 | 123.83424 | 2686 ft | 163 kts | 7° |
| 2026-05-06 16:12 | 10.16441 | 123.83709 | 2622 ft | 142 kts | 31° |
| 2026-05-06 16:12 | 10.16713 | 123.83883 | 2608 ft | 136 kts | 38° |
| 2026-05-06 16:13 | 10.18615 | 123.85741 | 2579 ft | 133 kts | 45° |
| 2026-05-06 16:13 | 10.19280 | 123.86416 | 2574 ft | 134 kts | 45° |
| 2026-05-06 16:13 | 10.19941 | 123.87083 | 2544 ft | 133 kts | 45° |
| 2026-05-06 16:13 | 10.20603 | 123.87748 | 2494 ft | 133 kts | 45° |
| 2026-05-06 16:14 | 10.21265 | 123.88413 | 2388 ft | 134 kts | 45° |
| 2026-05-06 16:14 | 10.21926 | 123.89078 | 2190 ft | 133 kts | 45° |
| 2026-05-06 16:14 | 10.22588 | 123.89742 | 2014 ft | 133 kts | 45° |
| 2026-05-06 16:14 | 10.23243 | 123.90401 | 1849 ft | 133 kts | 44° |
| 2026-05-06 16:15 | 10.23903 | 123.91063 | 1684 ft | 133 kts | 44° |
| 2026-05-06 16:15 | 10.24563 | 123.91725 | 1510 ft | 133 kts | 44° |
| 2026-05-06 16:15 | 10.25217 | 123.92381 | 1338 ft | 132 kts | 44° |
| 2026-05-06 16:15 | 10.25873 | 123.93039 | 1167 ft | 131 kts | 44° |
| 2026-05-06 16:16 | 10.26521 | 123.93688 | 993 ft | 131 kts | 44° |
| 2026-05-06 16:16 | 10.27172 | 123.94342 | 818 ft | 130 kts | 44° |
| 2026-05-06 16:16 | 10.27813 | 123.94987 | 602 ft | 130 kts | 45° |
| 2026-05-06 16:16 | 10.28454 | 123.95632 | 413 ft | 129 kts | 44° |
| 2026-05-06 16:17 | 10.29093 | 123.96274 | 255 ft | 129 kts | 44° |
| 2026-05-06 16:17 | 10.29742 | 123.96925 | 87 ft | 128 kts | 45° |
| 2026-05-06 16:17 | 10.30348 | 123.97538 | 55 ft | 109 kts | 44° |
| 2026-05-06 16:17 | 10.30761 | 123.97950 | 54 ft | 57 kts | 45° |
| 2026-05-06 16:18 | 10.30964 | 123.98150 | 54 ft | 36 kts | 44° |
| 2026-05-06 16:18 | 10.31153 | 123.98301 | 54 ft | 33 kts | 25° |
| 2026-05-06 16:18 | 10.31365 | 123.98349 | 54 ft | 28 kts | 341° |
| 2026-05-06 16:18 | 10.31462 | 123.98250 | 54 ft | 16 kts | 315° |
| 2026-05-06 16:19 | 10.31541 | 123.98173 | 54 ft | 11 kts | 316° |
| 2026-05-06 16:19 | 10.31560 | 123.98109 | 54 ft | 9 kts | 237° |
| 2026-05-06 16:19 | 10.31526 | 123.98069 | 54 ft | 6 kts | 227° |
| 2026-05-06 16:19 | 10.31504 | 123.98042 | 54 ft | 3 kts | 247° |
| 2026-05-06 16:20 | 10.31513 | 123.98017 | 54 ft | 3 kts | 306° |
| 2026-05-06 16:20 | 10.31531 | 123.97997 | 54 ft | 3 kts | 313° |
| 2026-05-06 16:20 | 10.31539 | 123.97988 | 54 ft | 1 kts | 314° |
| 2026-05-06 16:20 | 10.31543 | 123.97984 | 54 ft | 0 kts | 314° |